Time;durP1;ratioP1;P1;durP2;ratioP2;P2;SDS_P1;SDS_P2;PMS_P1;PMS_P2;Temp;Humidity;BMP_temperature;BMP_pressure;BME280_temperature;BME280_humidity;BME280_pressure;Samples;Min_cycle;Max_cycle;Signal;HPM_P1;HPM_P2
2022/10/07 00:02:17;;;;;;;;;;;;;;;;;;5066416;28;19963;-74
2022/10/07 00:04:45;;;;;;;;;;;;;;;;;;5063587;28;19974;-75
2022/10/07 00:07:10;;;;;;;;;;;;;;;;;;5101191;28;20138;-75
2022/10/07 00:09:35;;;;;;;;;;;;;;;;;;5060757;28;20003;-75
2022/10/07 00:12:00;;;;;;;;;;;;;;;;;;5068153;28;19912;-75
2022/10/07 00:14:25;;;;;;;;;;;;;;;;;;5064667;28;20380;-75
2022/10/07 00:16:50;;;;;;;;;;;;;;;;;;5069876;28;20525;-75
2022/10/07 00:19:15;;;;;;;;;;;;;;;;;;5068378;28;19916;-75
2022/10/07 00:21:41;;;;;;;;;;;;;;;;;;5068140;28;19925;-75
2022/10/07 00:24:06;;;;;;;;;;;;;;;;;;5069536;28;19912;-75
2022/10/07 00:26:31;;;;;;;;;;;;;;;;;;5054814;28;19928;-75
2022/10/07 00:28:56;;;;;;;;;;;;;;;;;;5069663;28;20372;-75
2022/10/07 00:31:21;;;;;;;;;;;;;;;;;;5098757;28;19974;-74
2022/10/07 00:33:46;;;;;;;;;;;;;;;;;;5067222;28;19943;-75
2022/10/07 00:36:11;;;;;;;;;;;;;;;;;;5070300;28;19917;-74
2022/10/07 00:38:37;;;;;;;;;;;;;;;;;;5073685;28;19978;-75
2022/10/07 00:41:02;;;;;;;;;;;;;;;;;;5073554;28;19918;-74
2022/10/07 00:43:28;;;;;;;;;;;;;;;;;;5074861;28;19959;-75
2022/10/07 00:45:53;;;;;;;;;;;;;;;;;;5070432;28;19912;-75
2022/10/07 00:48:19;;;;;;;;;;;;;;;;;;5064690;28;20297;-75
2022/10/07 00:50:46;;;;;;;;;;;;;;;;;;5072187;28;19977;-75
2022/10/07 00:53:11;;;;;;;;;;;;;;;;;;5069418;28;19935;-74
2022/10/07 00:55:36;;;;;;;;;;;;;;;;;;5073089;28;20357;-74
2022/10/07 00:58:01;;;;;;;;;;;;;;;;;;5072090;28;19912;-74
2022/10/07 01:00:26;;;;;;;;;;;;;;;;;;5065419;28;20006;-75
2022/10/07 01:02:52;;;;;;;;;;;;;;;;;;5069498;28;19917;-74
2022/10/07 01:05:17;;;;;;;;;;;;;;;;;;5065548;28;20350;-75
2022/10/07 01:07:42;;;;;;;;;;;;;;;;;;5104872;28;19986;-74
2022/10/07 01:10:08;;;;;;;;;;;;;;;;;;5068866;28;20411;-73
2022/10/07 01:12:33;;;;;;;;;;;;;;;;;;5073751;28;20375;-72
2022/10/07 01:14:58;;;;;;;;;;;;;;;;;;5100313;28;19942;-72
2022/10/07 01:17:23;;;;;;;;;;;;;;;;;;5097782;28;19999;-72
2022/10/07 01:19:48;;;;;;;;;;;;;;;;;;5070661;28;19931;-72
2022/10/07 01:22:14;;;;;;;;;;;;;;;;;;5071450;28;19920;-72
2022/10/07 01:24:39;;;;;;;;;;;;;;;;;;5069311;28;20315;-72
2022/10/07 01:27:05;;;;;;;;;;;;;;;;;;5070378;28;19916;-73
2022/10/07 01:29:30;;;;;;;;;;;;;;;;;;5079238;28;19913;-72
2022/10/07 01:31:55;;;;;;;;;;;;;;;;;;5076356;28;19913;-74
2022/10/07 01:34:22;;;;;;;;;;;;;;;;;;5063632;28;20490;-74
2022/10/07 01:36:49;;;;;;;;;;;;;;;;;;5067722;28;19913;-74
2022/10/07 01:39:14;;;;;;;;;;;;;;;;;;5071672;28;20226;-74
2022/10/07 01:41:40;;;;;;;;;;;;;;;;;;5103468;28;19963;-74
2022/10/07 01:44:05;;;;;;;;;;;;;;;;;;5066083;28;19924;-74
2022/10/07 01:46:32;;;;;;;;;;;;;;;;;;5093208;28;20467;-73
2022/10/07 01:48:57;;;;;;;;;;;;;;;;;;5085459;28;19912;-73
2022/10/07 01:51:22;;;;;;;;;;;;;;;;;;5067117;28;19920;-73
2022/10/07 01:53:48;;;;;;;;;;;;;;;;;;5067112;28;19908;-73
2022/10/07 01:56:13;;;;;;;;;;;;;;;;;;5100372;28;19912;-73
2022/10/07 01:58:39;;;;;;;;;;;;;;;;;;5070015;28;19913;-73
2022/10/07 02:01:05;;;;;;;;;;;;;;;;;;5064121;28;20379;-73
2022/10/07 02:03:30;;;;;;;;;;;;;;;;;;5072494;28;20377;-74
2022/10/07 02:05:55;;;;;;;;;;;;;;;;;;5102207;28;19934;-74
2022/10/07 02:08:20;;;;;;;;;;;;;;;;;;5069971;28;20372;-74
2022/10/07 02:10:45;;;;;;;;;;;;;;;;;;5098978;28;20285;-74
2022/10/07 02:13:11;;;;;;;;;;;;;;;;;;5087068;28;19916;-74
2022/10/07 02:15:36;;;;;;;;;;;;;;;;;;5094862;28;19961;-73
2022/10/07 02:18:01;;;;;;;;;;;;;;;;;;5101316;27;19928;-73
2022/10/07 02:20:26;;;;;;;;;;;;;;;;;;5068837;28;19950;-73
2022/10/07 02:22:51;;;;;;;;;;;;;;;;;;5071797;28;19921;-73
2022/10/07 02:25:17;;;;;;;;;;;;;;;;;;5100060;28;20288;-73
2022/10/07 02:27:42;;;;;;;;;;;;;;;;;;5070969;28;19920;-72
2022/10/07 02:30:07;;;;;;;;;;;;;;;;;;5067609;28;19909;-73
2022/10/07 02:32:32;;;;;;;;;;;;;;;;;;5087354;28;19982;-73
2022/10/07 02:34:57;;;;;;;;;;;;;;;;;;5070635;28;19913;-73
2022/10/07 02:37:25;;;;;;;;;;;;;;;;;;5071313;28;19916;-73
2022/10/07 02:39:50;;;;;;;;;;;;;;;;;;5099884;28;19912;-73
2022/10/07 02:42:16;;;;;;;;;;;;;;;;;;5070969;28;19958;-73
2022/10/07 02:44:41;;;;;;;;;;;;;;;;;;5071888;28;20273;-73
2022/10/07 02:47:06;;;;;;;;;;;;;;;;;;5095525;28;19983;-73
2022/10/07 02:49:31;;;;;;;;;;;;;;;;;;5065770;28;20003;-73
2022/10/07 02:51:57;;;;;;;;;;;;;;;;;;5070566;28;19913;-73
2022/10/07 02:54:22;;;;;;;;;;;;;;;;;;5071261;28;19924;-72
2022/10/07 02:56:47;;;;;;;;;;;;;;;;;;5071022;28;20007;-73
2022/10/07 02:59:12;;;;;;;;;;;;;;;;;;5100741;28;20377;-72
2022/10/07 03:01:37;;;;;;;;;;;;;;;;;;5100494;28;19917;-74
2022/10/07 03:04:04;;;;;;;;;;;;;;;;;;5071475;28;19913;-74
2022/10/07 03:06:29;;;;;;;;;;;;;;;;;;5105981;27;21544;-74
2022/10/07 03:08:56;;;;;;;;;;;;;;;;;;5102370;27;19913;-74
2022/10/07 03:11:22;;;;;;;;;;;;;;;;;;5055243;28;20015;-73
2022/10/07 03:13:47;;;;;;;;;;;;;;;;;;5103155;28;20030;-76
2022/10/07 03:16:12;;;;;;;;;;;;;;;;;;5099941;28;20032;-76
2022/10/07 03:18:37;;;;;;;;;;;;;;;;;;5059953;28;19921;-75
2022/10/07 03:21:03;;;;;;;;;;;;;;;;;;5068489;28;19924;-75
2022/10/07 03:23:28;;;;;;;;;;;;;;;;;;5074559;28;20364;-75
2022/10/07 03:25:53;;;;;;;;;;;;;;;;;;5074575;28;19924;-75
2022/10/07 03:28:19;;;;;;;;;;;;;;;;;;5099190;27;19913;-75
2022/10/07 03:30:44;;;;;;;;;;;;;;;;;;5068981;28;19921;-75
2022/10/07 03:33:10;;;;;;;;;;;;;;;;;;5069508;28;19963;-75
2022/10/07 03:35:35;;;;;;;;;;;;;;;;;;5093553;28;20289;-74
2022/10/07 03:38:00;;;;;;;;;;;;;;;;;;5065390;28;19919;-74
2022/10/07 03:40:25;;;;;;;;;;;;;;;;;;5061863;28;20384;-74
2022/10/07 03:42:50;;;;;;;;;;;;;;;;;;5068399;28;20015;-75
2022/10/07 03:45:15;;;;;;;;;;;;;;;;;;5068628;28;19913;-74
2022/10/07 03:47:40;;;;;;;;;;;;;;;;;;5064132;28;19920;-74
2022/10/07 03:50:07;;;;;;;;;;;;;;;;;;5097940;28;19923;-74
2022/10/07 03:52:32;;;;;;;;;;;;;;;;;;5066940;28;19917;-74
2022/10/07 03:54:57;;;;;;;;;;;;;;;;;;5098013;28;19919;-74
2022/10/07 04:00:06;;;;;;;;;;;;;;;;;;5069665;28;19985;-74
2022/10/07 04:02:31;;;;;;;;;;;;;;;;;;5093493;28;20705;-74
2022/10/07 04:04:56;;;;;;;;;;;;;;;;;;5069313;28;19943;-74
2022/10/07 04:07:21;;;;;;;;;;;;;;;;;;5099293;28;20343;-74
2022/10/07 04:09:46;;;;;;;;;;;;;;;;;;5065129;28;19909;-74
2022/10/07 04:12:11;;;;;;;;;;;;;;;;;;5080642;28;20288;-73
2022/10/07 04:14:37;;;;;;;;;;;;;;;;;;5070722;28;20288;-74
2022/10/07 04:17:03;;;;;;;;;;;;;;;;;;5074169;28;20045;-74
2022/10/07 04:19:29;;;;;;;;;;;;;;;;;;5103315;28;20003;-74
2022/10/07 04:21:55;;;;;;;;;;;;;;;;;;5067861;28;19958;-74
2022/10/07 04:24:20;;;;;;;;;;;;;;;;;;5101728;28;19920;-75
2022/10/07 04:26:45;;;;;;;;;;;;;;;;;;5065539;28;19912;-75
2022/10/07 04:29:10;;;;;;;;;;;;;;;;;;5073563;28;19912;-75
2022/10/07 04:31:36;;;;;;;;;;;;;;;;;;5103105;27;19995;-76
2022/10/07 04:34:01;;;;;;;;;;;;;;;;;;5111770;27;19920;-74
2022/10/07 04:36:26;;;;;;;;;;;;;;;;;;5070752;28;19913;-75
2022/10/07 04:38:51;;;;;;;;;;;;;;;;;;5110771;27;19920;-74
2022/10/07 04:41:17;;;;;;;;;;;;;;;;;;5104181;28;20285;-75
2022/10/07 04:43:42;;;;;;;;;;;;;;;;;;5074126;28;19935;-74
2022/10/07 04:46:07;;;;;;;;;;;;;;;;;;5071130;28;20258;-74
2022/10/07 04:48:33;;;;;;;;;;;;;;;;;;5070371;28;20432;-74
2022/10/07 04:50:58;;;;;;;;;;;;;;;;;;5066135;28;19978;-75
2022/10/07 04:53:23;;;;;;;;;;;;;;;;;;5072519;28;19916;-75
2022/10/07 04:55:49;;;;;;;;;;;;;;;;;;5103782;27;19963;-75
2022/10/07 04:58:14;;;;;;;;;;;;;;;;;;5073641;28;19957;-73
2022/10/07 05:00:39;;;;;;;;;;;;;;;;;;5104938;28;19969;-74
2022/10/07 05:03:04;;;;;;;;;;;;;;;;;;5067914;28;20369;-74
2022/10/07 05:05:29;;;;;;;;;;;;;;;;;;5097372;28;20383;-74
2022/10/07 05:07:54;;;;;;;;;;;;;;;;;;5081682;28;20283;-75
2022/10/07 05:10:19;;;;;;;;;;;;;;;;;;5074664;28;19909;-75
2022/10/07 05:12:44;;;;;;;;;;;;;;;;;;5069554;28;19912;-75
2022/10/07 05:15:10;;;;;;;;;;;;;;;;;;5106529;28;19912;-75
2022/10/07 05:17:35;;;;;;;;;;;;;;;;;;5070462;28;20258;-75
2022/10/07 05:20:00;;;;;;;;;;;;;;;;;;5067080;28;19966;-74
2022/10/07 05:22:25;;;;;;;;;;;;;;;;;;5067747;28;20015;-73
2022/10/07 05:24:50;;;;;;;;;;;;;;;;;;5106976;28;19934;-75
2022/10/07 05:27:15;;;;;;;;;;;;;;;;;;5087485;28;19919;-75
2022/10/07 05:29:40;;;;;;;;;;;;;;;;;;5080921;28;20416;-75
2022/10/07 05:32:06;;;;;;;;;;;;;;;;;;5092387;28;19915;-75
2022/10/07 05:34:31;;;;;;;;;;;;;;;;;;5073039;28;20008;-76
2022/10/07 05:36:58;;;;;;;;;;;;;;;;;;5074121;28;20257;-74
2022/10/07 05:39:23;;;;;;;;;;;;;;;;;;5104842;28;19920;-75
2022/10/07 05:41:48;;;;;;;;;;;;;;;;;;5070050;28;20330;-75
2022/10/07 05:44:13;;;;;;;;;;;;;;;;;;5102728;28;19917;-74
2022/10/07 05:46:39;;;;;;;;;;;;;;;;;;5074549;28;19908;-75
2022/10/07 05:49:04;;;;;;;;;;;;;;;;;;5063457;28;19916;-74
2022/10/07 05:51:29;;;;;;;;;;;;;;;;;;5101391;28;20380;-74
2022/10/07 05:53:54;;;;;;;;;;;;;;;;;;5105305;28;19919;-74
2022/10/07 05:56:23;;;;;;;;;;;;;;;;;;5104424;28;19965;-74
2022/10/07 05:58:48;;;;;;;;;;;;;;;;;;5069358;28;19964;-74
2022/10/07 06:01:13;;;;;;;;;;;;;;;;;;5070571;28;19963;-74
2022/10/07 06:03:38;;;;;;;;;;;;;;;;;;5096964;28;20288;-75
2022/10/07 06:06:03;;;;;;;;;;;;;;;;;;5061379;28;19920;-75
2022/10/07 06:08:28;;;;;;;;;;;;;;;;;;5063600;28;20283;-75
2022/10/07 06:13:37;;;;;;;;;;;;;;;;;;5077717;28;19965;-75
2022/10/07 06:16:02;;;;;;;;;;;;;;;;;;5101341;28;19999;-74
2022/10/07 06:18:28;;;;;;;;;;;;;;;;;;5070366;28;20281;-76
2022/10/07 06:20:53;;;;;;;;;;;;;;;;;;5072218;28;19920;-75
2022/10/07 06:23:18;;;;;;;;;;;;;;;;;;5074024;28;19916;-75
2022/10/07 06:25:44;;;;;;;;;;;;;;;;;;5080022;28;19962;-75
2022/10/07 06:28:09;;;;;;;;;;;;;;;;;;5072535;28;19908;-75
2022/10/07 06:30:34;;;;;;;;;;;;;;;;;;5073505;28;20007;-75
2022/10/07 06:32:59;;;;;;;;;;;;;;;;;;5073866;28;19913;-75
2022/10/07 06:35:24;;;;;;;;;;;;;;;;;;5073161;28;19908;-75
2022/10/07 06:37:49;;;;;;;;;;;;;;;;;;5072127;28;19932;-75
2022/10/07 06:40:15;;;;;;;;;;;;;;;;;;5070996;28;19916;-75
2022/10/07 06:42:40;;;;;;;;;;;;;;;;;;5071402;28;19979;-75
2022/10/07 06:45:05;;;;;;;;;;;;;;;;;;5073441;28;19908;-74
2022/10/07 06:47:30;;;;;;;;;;;;;;;;;;5104714;28;20327;-74
2022/10/07 06:49:55;;;;;;;;;;;;;;;;;;5070602;28;20270;-74
2022/10/07 06:52:20;;;;;;;;;;;;;;;;;;5073088;28;19908;-75
2022/10/07 06:54:45;;;;;;;;;;;;;;;;;;5072767;28;20396;-75
2022/10/07 06:57:11;;;;;;;;;;;;;;;;;;5072768;28;19909;-75
2022/10/07 06:59:36;;;;;;;;;;;;;;;;;;5075903;28;19946;-74
2022/10/07 07:02:01;;;;;;;;;;;;;;;;;;5084605;28;19916;-75
2022/10/07 07:04:26;;;;;;;;;;;;;;;;;;5070814;28;19919;-74
2022/10/07 07:06:51;;;;;;;;;;;;;;;;;;5105201;28;20399;-74
2022/10/07 07:09:16;;;;;;;;;;;;;;;;;;5072329;28;19908;-75
2022/10/07 07:11:44;;;;;;;;;;;;;;;;;;5071382;28;19965;-74
2022/10/07 07:14:10;;;;;;;;;;;;;;;;;;5069607;28;20015;-76
2022/10/07 07:16:35;;;;;;;;;;;;;;;;;;5070568;28;19920;-75
2022/10/07 07:19:00;;;;;;;;;;;;;;;;;;5071148;28;19916;-75
2022/10/07 07:21:27;;;;;;;;;;;;;;;;;;5065426;28;19950;-76
2022/10/07 07:23:52;;;;;;;;;;;;;;;;;;5103965;28;19923;-74
2022/10/07 07:26:19;;;;;;;;;;;;;;;;;;5063647;28;20229;-75
2022/10/07 07:28:44;;;;;;;;;;;;;;;;;;5100655;28;19915;-75
2022/10/07 07:31:09;;;;;;;;;;;;;;;;;;5096167;28;20373;-77
2022/10/07 07:33:37;;;;;;;;;;;;;;;;;;5086957;28;20003;-74
2022/10/07 07:36:02;;;;;;;;;;;;;;;;;;5098055;28;19917;-75
2022/10/07 07:38:27;;;;;;;;;;;;;;;;;;5072465;28;19915;-76
2022/10/07 07:40:52;;;;;;;;;;;;;;;;;;5067426;28;19913;-75
2022/10/07 07:43:17;;;;;;;;;;;;;;;;;;5071678;28;19912;-74
2022/10/07 07:45:43;;;;;;;;;;;;;;;;;;5067419;28;19917;-73
2022/10/07 07:48:08;;;;;;;;;;;;;;;;;;5070262;28;20003;-73
2022/10/07 07:50:33;;;;;;;;;;;;;;;;;;5069730;28;20316;-73
2022/10/07 07:53:01;;;;;;;;;;;;;;;;;;5103377;28;20355;-73
2022/10/07 07:55:26;;;;;;;;;;;;;;;;;;5074317;28;20008;-74
2022/10/07 07:57:51;;;;;;;;;;;;;;;;;;5070800;28;19999;-74
2022/10/07 08:00:17;;;;;;;;;;;;;;;;;;5071626;28;19932;-74
2022/10/07 08:02:42;;;;;;;;;;;;;;;;;;5070328;28;19920;-75
2022/10/07 08:05:07;;;;;;;;;;;;;;;;;;5069774;28;20385;-75
2022/10/07 08:07:32;;;;;;;;;;;;;;;;;;5069819;28;19921;-75
2022/10/07 08:09:58;;;;;;;;;;;;;;;;;;5069850;28;19916;-75
2022/10/07 08:12:23;;;;;;;;;;;;;;;;;;5070957;28;19965;-75
2022/10/07 08:14:48;;;;;;;;;;;;;;;;;;5069538;28;19970;-75
2022/10/07 08:17:13;;;;;;;;;;;;;;;;;;5068528;28;19916;-75
2022/10/07 08:19:38;;;;;;;;;;;;;;;;;;5070830;28;19959;-75
2022/10/07 08:22:05;;;;;;;;;;;;;;;;;;5071102;28;19920;-75
2022/10/07 08:24:31;;;;;;;;;;;;;;;;;;5073236;28;19939;-74
2022/10/07 08:26:56;;;;;;;;;;;;;;;;;;5069199;28;20329;-76
2022/10/07 08:29:21;;;;;;;;;;;;;;;;;;5099331;28;19919;-75
2022/10/07 08:31:47;;;;;;;;;;;;;;;;;;5072622;28;20269;-75
2022/10/07 08:34:12;;;;;;;;;;;;;;;;;;5071034;28;19912;-75
2022/10/07 08:36:37;;;;;;;;;;;;;;;;;;5069482;28;19920;-76
2022/10/07 08:39:03;;;;;;;;;;;;;;;;;;5064712;28;19939;-75
2022/10/07 08:41:30;;;;;;;;;;;;;;;;;;5072413;28;19942;-75
2022/10/07 08:43:57;;;;;;;;;;;;;;;;;;5070719;28;19920;-75
2022/10/07 08:46:22;;;;;;;;;;;;;;;;;;5069867;28;20430;-75
2022/10/07 08:48:48;;;;;;;;;;;;;;;;;;5061591;28;19920;-75
2022/10/07 08:51:14;;;;;;;;;;;;;;;;;;5069562;28;19913;-73
2022/10/07 08:53:39;;;;;;;;;;;;;;;;;;5070295;28;19962;-74
2022/10/07 08:56:04;;;;;;;;;;;;;;;;;;5076892;28;19958;-74
2022/10/07 08:58:29;;;;;;;;;;;;;;;;;;5072918;28;19912;-75
2022/10/07 09:00:54;;;;;;;;;;;;;;;;;;5070668;28;19920;-74
2022/10/07 09:03:20;;;;;;;;;;;;;;;;;;5099713;28;20019;-76
2022/10/07 09:05:45;;;;;;;;;;;;;;;;;;5071774;28;20141;-76
2022/10/07 09:08:10;;;;;;;;;;;;;;;;;;5073100;28;20323;-77
2022/10/07 09:10:35;;;;;;;;;;;;;;;;;;5070471;28;19927;-72
2022/10/07 09:13:00;;;;;;;;;;;;;;;;;;5102396;27;20380;-77
2022/10/07 09:15:26;;;;;;;;;;;;;;;;;;5072167;28;20287;-77
2022/10/07 09:17:51;;;;;;;;;;;;;;;;;;5074099;28;19915;-77
2022/10/07 09:20:16;;;;;;;;;;;;;;;;;;5070145;28;19928;-77
2022/10/07 09:22:41;;;;;;;;;;;;;;;;;;5073047;28;19927;-76
2022/10/07 09:25:07;;;;;;;;;;;;;;;;;;5073091;28;19947;-77
2022/10/07 09:27:32;;;;;;;;;;;;;;;;;;5072919;28;19920;-77
2022/10/07 09:29:57;;;;;;;;;;;;;;;;;;5077396;28;19919;-78
2022/10/07 09:32:22;;;;;;;;;;;;;;;;;;5072992;28;19920;-77
2022/10/07 09:34:47;;;;;;;;;;;;;;;;;;5074460;28;19908;-78
2022/10/07 09:37:13;;;;;;;;;;;;;;;;;;5072593;28;19965;-78
2022/10/07 09:39:38;;;;;;;;;;;;;;;;;;5073691;28;19912;-78
2022/10/07 09:42:03;;;;;;;;;;;;;;;;;;5070576;28;20273;-77
2022/10/07 09:44:28;;;;;;;;;;;;;;;;;;5073959;28;19908;-78
2022/10/07 09:46:53;;;;;;;;;;;;;;;;;;5077423;28;19995;-78
2022/10/07 09:49:18;;;;;;;;;;;;;;;;;;5072044;28;20420;-78
2022/10/07 09:51:44;;;;;;;;;;;;;;;;;;5076119;28;19912;-78
2022/10/07 09:54:09;;;;;;;;;;;;;;;;;;5071371;28;19919;-75
2022/10/07 09:56:34;;;;;;;;;;;;;;;;;;5101840;28;19919;-75
2022/10/07 09:58:59;;;;;;;;;;;;;;;;;;5070680;28;19974;-76
2022/10/07 10:01:24;;;;;;;;;;;;;;;;;;5066981;28;19916;-75
2022/10/07 10:03:49;;;;;;;;;;;;;;;;;;5072771;28;19986;-74
2022/10/07 10:06:15;;;;;;;;;;;;;;;;;;5071952;28;19942;-73
2022/10/07 10:08:40;;;;;;;;;;;;;;;;;;5069947;28;19913;-73
2022/10/07 10:11:05;;;;;;;;;;;;;;;;;;5070122;28;19934;-74
2022/10/07 10:13:30;;;;;;;;;;;;;;;;;;5069138;28;19908;-74
2022/10/07 10:15:55;;;;;;;;;;;;;;;;;;5071067;28;20327;-73
2022/10/07 10:18:20;;;;;;;;;;;;;;;;;;5066072;28;20503;-74
2022/10/07 10:20:45;;;;;;;;;;;;;;;;;;5067659;28;20381;-74
2022/10/07 10:23:11;;;;;;;;;;;;;;;;;;5070172;28;20386;-74
2022/10/07 10:28:20;;;;;;;;;;;;;;;;;;5071743;28;19963;-75
2022/10/07 10:30:46;;;;;;;;;;;;;;;;;;5069189;28;19960;-75
2022/10/07 10:33:12;;;;;;;;;;;;;;;;;;5076231;28;19966;-74
2022/10/07 10:35:37;;;;;;;;;;;;;;;;;;5071319;28;19912;-75
2022/10/07 10:38:02;;;;;;;;;;;;;;;;;;5072387;28;19908;-74
2022/10/07 10:40:27;;;;;;;;;;;;;;;;;;5071006;28;19959;-75
2022/10/07 10:42:52;;;;;;;;;;;;;;;;;;5072692;28;19916;-73
2022/10/07 10:45:17;;;;;;;;;;;;;;;;;;5070220;28;20269;-75
2022/10/07 10:47:43;;;;;;;;;;;;;;;;;;5071958;28;20254;-75
2022/10/07 10:50:08;;;;;;;;;;;;;;;;;;5065622;28;20369;-74
2022/10/07 10:52:33;;;;;;;;;;;;;;;;;;5068340;28;20344;-74
2022/10/07 10:54:59;;;;;;;;;;;;;;;;;;5069108;28;19916;-75
2022/10/07 10:57:24;;;;;;;;;;;;;;;;;;5071967;28;20380;-75
2022/10/07 10:59:49;;;;;;;;;;;;;;;;;;5072951;28;19909;-74
2022/10/07 11:02:14;;;;;;;;;;;;;;;;;;5065565;28;19916;-74
2022/10/07 11:04:39;;;;;;;;;;;;;;;;;;5066999;28;19958;-75
2022/10/07 11:07:05;;;;;;;;;;;;;;;;;;5073971;28;19921;-75
2022/10/07 11:09:30;;;;;;;;;;;;;;;;;;5077855;28;19908;-75
2022/10/07 11:11:55;;;;;;;;;;;;;;;;;;5071858;28;19919;-75
2022/10/07 11:14:21;;;;;;;;;;;;;;;;;;5102622;27;19916;-75
2022/10/07 11:16:46;;;;;;;;;;;;;;;;;;5071841;28;19959;-75
2022/10/07 11:19:12;;;;;;;;;;;;;;;;;;5094495;28;19967;-75
2022/10/07 11:21:37;;;;;;;;;;;;;;;;;;5068813;28;19977;-74
2022/10/07 11:24:03;;;;;;;;;;;;;;;;;;5068894;28;19971;-75
2022/10/07 11:26:28;;;;;;;;;;;;;;;;;;5055967;28;20471;-74
2022/10/07 11:28:53;;;;;;;;;;;;;;;;;;5067051;28;20418;-74
2022/10/07 11:31:18;;;;;;;;;;;;;;;;;;5052487;28;19999;-75
2022/10/07 11:33:45;;;;;;;;;;;;;;;;;;5095751;28;19919;-76
2022/10/07 11:36:10;;;;;;;;;;;;;;;;;;5065538;28;19927;-76
2022/10/07 11:38:35;;;;;;;;;;;;;;;;;;5059921;28;20428;-76
2022/10/07 11:41:01;;;;;;;;;;;;;;;;;;5066308;28;19951;-76
2022/10/07 11:43:26;;;;;;;;;;;;;;;;;;5064346;28;19924;-75
2022/10/07 11:45:51;;;;;;;;;;;;;;;;;;5072395;28;19913;-76
2022/10/07 11:48:16;;;;;;;;;;;;;;;;;;5067306;28;19923;-75
2022/10/07 11:50:42;;;;;;;;;;;;;;;;;;5068561;28;19917;-75
2022/10/07 11:53:08;;;;;;;;;;;;;;;;;;5064302;28;19916;-75
2022/10/07 11:55:33;;;;;;;;;;;;;;;;;;5100275;28;20290;-75
2022/10/07 11:57:58;;;;;;;;;;;;;;;;;;5069084;28;19919;-74
2022/10/07 12:00:24;;;;;;;;;;;;;;;;;;5107883;28;20428;-75
2022/10/07 12:02:49;;;;;;;;;;;;;;;;;;5067160;28;19916;-75
2022/10/07 12:05:14;;;;;;;;;;;;;;;;;;5091882;28;19913;-75
2022/10/07 12:07:40;;;;;;;;;;;;;;;;;;5062027;28;19912;-76
2022/10/07 12:10:06;;;;;;;;;;;;;;;;;;5060518;28;20395;-76
2022/10/07 12:12:31;;;;;;;;;;;;;;;;;;5065051;28;19916;-76
2022/10/07 12:14:56;;;;;;;;;;;;;;;;;;5091159;28;19967;-76
2022/10/07 12:17:21;;;;;;;;;;;;;;;;;;5056188;28;20323;-76
2022/10/07 12:19:46;;;;;;;;;;;;;;;;;;5055708;28;20389;-75
2022/10/07 12:22:11;;;;;;;;;;;;;;;;;;5062581;28;19924;-75
2022/10/07 12:24:37;;;;;;;;;;;;;;;;;;5061514;28;20423;-72
2022/10/07 12:27:02;;;;;;;;;;;;;;;;;;5057923;28;19917;-76
2022/10/07 12:29:27;;;;;;;;;;;;;;;;;;5060148;28;19920;-75
2022/10/07 12:31:52;;;;;;;;;;;;;;;;;;5062356;28;20043;-76
2022/10/07 12:34:17;;;;;;;;;;;;;;;;;;5066889;28;19990;-75
2022/10/07 12:36:43;;;;;;;;;;;;;;;;;;5100960;27;19913;-76
2022/10/07 12:39:11;;;;;;;;;;;;;;;;;;5070450;28;19920;-76
2022/10/07 12:41:38;;;;;;;;;;;;;;;;;;5058008;28;20423;-75
2022/10/07 12:44:05;;;;;;;;;;;;;;;;;;5105121;28;19939;-77
2022/10/07 12:46:30;;;;;;;;;;;;;;;;;;5099652;28;19923;-77
2022/10/07 12:48:57;;;;;;;;;;;;;;;;;;5067776;28;20414;-77
2022/10/07 12:51:22;;;;;;;;;;;;;;;;;;5071026;28;19917;-77
2022/10/07 12:53:47;;;;;;;;;;;;;;;;;;5074753;28;19915;-77
2022/10/07 12:56:12;;;;;;;;;;;;;;;;;;5107832;28;19959;-77
2022/10/07 13:01:21;;;;;;;;;;;;;;;;;;5073429;28;20292;-77
2022/10/07 13:03:46;;;;;;;;;;;;;;;;;;5062331;28;19916;-77
2022/10/07 13:06:12;;;;;;;;;;;;;;;;;;5107450;28;19962;-77
2022/10/07 13:08:37;;;;;;;;;;;;;;;;;;5074972;28;19908;-77
2022/10/07 13:11:02;;;;;;;;;;;;;;;;;;5107254;28;19908;-77
2022/10/07 13:13:28;;;;;;;;;;;;;;;;;;5071562;28;19913;-78
2022/10/07 13:15:53;;;;;;;;;;;;;;;;;;5071843;28;19967;-75
2022/10/07 13:18:18;;;;;;;;;;;;;;;;;;5102259;28;19928;-73
2022/10/07 13:20:43;;;;;;;;;;;;;;;;;;5094604;28;20018;-76
2022/10/07 13:23:08;;;;;;;;;;;;;;;;;;5102473;28;20292;-76
2022/10/07 13:25:35;;;;;;;;;;;;;;;;;;5074592;28;19913;-73
2022/10/07 13:28:00;;;;;;;;;;;;;;;;;;5073237;28;19912;-76
2022/10/07 13:30:26;;;;;;;;;;;;;;;;;;5070263;28;19936;-77
2022/10/07 13:32:51;;;;;;;;;;;;;;;;;;5055929;28;19944;-77
2022/10/07 13:35:16;;;;;;;;;;;;;;;;;;5073371;28;19969;-76
2022/10/07 13:37:42;;;;;;;;;;;;;;;;;;5059211;28;19923;-76
2022/10/07 13:40:07;;;;;;;;;;;;;;;;;;5070937;28;20350;-77
2022/10/07 13:42:32;;;;;;;;;;;;;;;;;;5059185;28;20427;-76
2022/10/07 13:44:57;;;;;;;;;;;;;;;;;;5100021;28;19912;-76
2022/10/07 13:47:22;;;;;;;;;;;;;;;;;;5096165;28;20567;-77
2022/10/07 13:49:48;;;;;;;;;;;;;;;;;;5063917;28;19908;-77
2022/10/07 13:52:13;;;;;;;;;;;;;;;;;;5069765;28;19916;-77
2022/10/07 13:54:38;;;;;;;;;;;;;;;;;;5070393;28;19913;-77
2022/10/07 13:57:03;;;;;;;;;;;;;;;;;;5063208;28;19923;-76
2022/10/07 13:59:28;;;;;;;;;;;;;;;;;;5107036;28;19915;-77
2022/10/07 14:01:53;;;;;;;;;;;;;;;;;;5073224;28;20345;-77
2022/10/07 14:04:19;;;;;;;;;;;;;;;;;;5071698;28;19962;-77
2022/10/07 14:06:44;;;;;;;;;;;;;;;;;;5068437;28;19920;-76
2022/10/07 14:09:09;;;;;;;;;;;;;;;;;;5059350;28;19912;-77
2022/10/07 14:11:34;;;;;;;;;;;;;;;;;;5068152;28;19917;-77
2022/10/07 14:13:59;;;;;;;;;;;;;;;;;;5057835;28;20293;-77
2022/10/07 14:16:24;;;;;;;;;;;;;;;;;;5071711;28;20261;-77
2022/10/07 14:18:49;;;;;;;;;;;;;;;;;;5099779;27;20003;-77
2022/10/07 14:21:16;;;;;;;;;;;;;;;;;;5069992;28;19921;-76
2022/10/07 14:23:41;;;;;;;;;;;;;;;;;;5072775;28;19916;-77
2022/10/07 14:26:08;;;;;;;;;;;;;;;;;;5070523;28;19923;-76
2022/10/07 14:28:33;;;;;;;;;;;;;;;;;;5107682;27;20057;-77
2022/10/07 14:36:26;;;;;;;;;;;;;;;;;;5077540;28;20289;-77
2022/10/07 14:38:51;;;;;;;;;;;;;;;;;;5069622;28;20357;-78
2022/10/07 14:41:16;;;;;;;;;;;;;;;;;;5071271;28;20000;-77
2022/10/07 14:43:43;;;;;;;;;;;;;;;;;;5060883;28;19913;-77
2022/10/07 14:46:10;;;;;;;;;;;;;;;;;;5064139;28;19916;-78
2022/10/07 14:48:35;;;;;;;;;;;;;;;;;;5052408;28;19920;-76
2022/10/07 14:51:00;;;;;;;;;;;;;;;;;;5070139;28;20008;-78
2022/10/07 14:53:26;;;;;;;;;;;;;;;;;;5071466;28;19915;-77
2022/10/07 14:55:51;;;;;;;;;;;;;;;;;;5072255;28;19913;-77
2022/10/07 14:58:16;;;;;;;;;;;;;;;;;;5102424;28;19908;-78
2022/10/07 15:00:41;;;;;;;;;;;;;;;;;;5067956;28;19916;-77
2022/10/07 15:03:06;;;;;;;;;;;;;;;;;;5068229;28;19922;-77
2022/10/07 15:05:32;;;;;;;;;;;;;;;;;;5096268;28;20000;-77
2022/10/07 15:07:57;;;;;;;;;;;;;;;;;;5071170;28;20007;-77
2022/10/07 15:10:24;;;;;;;;;;;;;;;;;;5094690;28;20003;-77
2022/10/07 15:12:49;;;;;;;;;;;;;;;;;;5068997;28;20369;-76
2022/10/07 15:15:14;;;;;;;;;;;;;;;;;;5059208;28;19912;-71
2022/10/07 15:17:39;;;;;;;;;;;;;;;;;;5071645;28;20308;-75
2022/10/07 15:20:04;;;;;;;;;;;;;;;;;;5064991;28;20414;-77
2022/10/07 15:22:29;;;;;;;;;;;;;;;;;;5069874;28;20260;-77
2022/10/07 15:24:56;;;;;;;;;;;;;;;;;;5103964;28;20419;-78
2022/10/07 15:27:21;;;;;;;;;;;;;;;;;;5064062;28;20109;-77
2022/10/07 15:29:49;;;;;;;;;;;;;;;;;;5089140;28;19913;-77
2022/10/07 15:32:14;;;;;;;;;;;;;;;;;;5054744;28;19913;-76
2022/10/07 15:34:39;;;;;;;;;;;;;;;;;;5084589;28;20280;-78
2022/10/07 15:37:05;;;;;;;;;;;;;;;;;;5098297;28;19919;-77
2022/10/07 15:39:30;;;;;;;;;;;;;;;;;;5058892;28;19963;-78
2022/10/07 15:41:55;;;;;;;;;;;;;;;;;;5085805;28;19959;-77
2022/10/07 15:44:23;;;;;;;;;;;;;;;;;;5113374;28;19912;-77
2022/10/07 15:46:48;;;;;;;;;;;;;;;;;;5078742;28;20472;-77
2022/10/07 15:49:15;;;;;;;;;;;;;;;;;;5065770;28;20011;-74
2022/10/07 15:51:41;;;;;;;;;;;;;;;;;;5069914;28;20366;-77
2022/10/07 15:54:06;;;;;;;;;;;;;;;;;;5075865;28;19915;-77
2022/10/07 15:56:31;;;;;;;;;;;;;;;;;;5102225;28;19920;-77
2022/10/07 15:58:57;;;;;;;;;;;;;;;;;;5063933;28;20377;-76
2022/10/07 16:01:25;;;;;;;;;;;;;;;;;;5098583;28;19920;-77
2022/10/07 16:03:50;;;;;;;;;;;;;;;;;;5067921;28;20015;-77
2022/10/07 16:06:15;;;;;;;;;;;;;;;;;;5070631;28;20003;-77
2022/10/07 16:08:41;;;;;;;;;;;;;;;;;;5073827;28;19917;-77
2022/10/07 16:11:06;;;;;;;;;;;;;;;;;;5073968;28;19916;-76
2022/10/07 16:13:31;;;;;;;;;;;;;;;;;;5073233;28;19912;-76
2022/10/07 16:15:56;;;;;;;;;;;;;;;;;;5075108;28;19912;-76
2022/10/07 16:18:21;;;;;;;;;;;;;;;;;;5063030;28;19966;-75
2022/10/07 16:20:46;;;;;;;;;;;;;;;;;;5100622;27;19920;-77
2022/10/07 16:23:14;;;;;;;;;;;;;;;;;;5069736;28;19927;-75
2022/10/07 16:25:40;;;;;;;;;;;;;;;;;;5095185;28;19970;-75
2022/10/07 16:30:50;;;;;;;;;;;;;;;;;;5079760;28;19914;-78
2022/10/07 16:33:17;;;;;;;;;;;;;;;;;;5067866;28;20291;-76
2022/10/07 16:35:42;;;;;;;;;;;;;;;;;;5090412;28;19908;-76
2022/10/07 16:38:07;;;;;;;;;;;;;;;;;;5070912;28;20284;-76
2022/10/07 16:40:33;;;;;;;;;;;;;;;;;;5078155;28;19912;-77
2022/10/07 16:42:58;;;;;;;;;;;;;;;;;;5095668;28;19999;-76
2022/10/07 16:45:24;;;;;;;;;;;;;;;;;;5073912;28;20383;-76
2022/10/07 16:47:49;;;;;;;;;;;;;;;;;;5068415;28;19987;-77
2022/10/07 16:50:14;;;;;;;;;;;;;;;;;;5067436;28;19931;-72
2022/10/07 16:52:40;;;;;;;;;;;;;;;;;;5073812;28;19934;-78